Tiempo atmosférico en la estación meteorológica de L?Estartit, Girona (1 m.)



Fecha
DESCASC
Temp. máxima en grados centígrados (hora)
DESCASC
Temp. mínima en grados centígrados (hora)
DESCASC
Temp. media en grados centígrados
DESCASC
Racha de viento máxima en m/sg (hora)
DESCASC
Velocidad máxima media en intervalos de 10 minutos(hora)
DESCASC
Precipitaciones diarias en mm
DESCASC
Precipitaciones de 00:00 a 06:00 en mm
DESCASC
Precipitaciones de 06:00 a 12:00 en mm
DESCASC
Precipitaciones de 12:00 a 18:00 en mm
DESCASC
Precipitaciones de 18:00 a 24:00 en mm
DESCASC

Gráficas

Temp. máximas Temp. mínimas Temp. medias Precipitaciones Rachas de viento máximas Velocidades máximas media en intervalos de 10 minutos

Datos horarios

Fecha y hora oficial Temperatura (ºC) Velocidad del viento (km/h) Dirección del viento Racha (km/h) Dirección de racha Precipitación (mm) Presión (hPa) Tendencia (hPa) Humedad (%)
2019-06-24 23:00:00 21.9 0 Calma 4 Noroeste 0 -- -- 85
2019-06-24 22:00:00 21.9 0 Calma 7 Este 0 -- -- 86
2019-06-24 21:00:00 22.3 4 Sudeste 11 Este 0 -- -- 84
2019-06-24 20:00:00 22.9 6 Sudeste 16 Este 0 -- -- 81
2019-06-24 19:00:00 24 10 Este 20 Sudeste 0 -- -- 74
2019-06-24 18:00:00 24.5 11 Este 22 Este 0 -- -- 68
2019-06-24 17:00:00 25.4 10 Este 20 Este 0 -- -- 54
2019-06-24 16:00:00 25.9 10 Este 18 Este 0 -- -- 49
2019-06-24 15:00:00 25.3 12 Este 16 Este 0 -- -- 58
2019-06-24 14:00:00 25.2 4 Sudeste 9 Este 0 -- -- 61
2019-06-24 13:00:00 25 3 Sudeste 9 Sur 0 -- -- 62
2019-06-24 12:00:00 24.1 5 Sur 8 Sur 0 -- -- 63
2019-06-24 11:00:00 23.3 4 Sur 10 Este 0 -- -- 73
2019-06-24 10:00:00 22.8 4 Sudeste 8 Sur 0 -- -- 79
2019-06-24 09:00:00 22 4 Sudeste 8 Este 0 -- -- 83
2019-06-24 08:00:00 20.7 0 Calma 4 Norte 0 -- -- 80
2019-06-24 07:00:00 19.3 3 Norte 7 Noroeste 0 -- -- 81
2019-06-24 06:00:00 19.5 3 Norte 6 Noroeste 0 -- -- 72
2019-06-24 05:00:00 20.5 2 Norte 6 Noroeste 0 -- -- 67
2019-06-24 04:00:00 21 5 Norte 9 Noroeste 0 -- -- 67
2019-06-24 03:00:00 22 5 Noroeste 12 Sudoeste 0 -- -- 63
2019-06-24 02:00:00 22.1 8 Oeste 14 Oeste 0 -- -- 71
2019-06-24 01:00:00 22.5 4 Oeste 10 Sudoeste 0 -- -- 72
2019-06-24 00:00:00 22.6 5 Oeste 11 Oeste 0 -- -- 69
2019-06-23 23:00:00 22.9 6 Oeste 16 Oeste 0 -- -- 70
2019-06-23 22:00:00 23.4 8 Sudoeste 18 Sur 0 -- -- 66
2019-06-23 21:00:00 23.9 8 Sudoeste 20 Sudoeste 0 -- -- 65
2019-06-23 20:00:00 24.9 10 Sur 26 Sudoeste 0 -- -- 63
2019-06-23 19:00:00 26.5 16 Sur 28 Sur 0 -- -- 55
2019-06-23 18:00:00 24.9 14 Sudeste 28 Sur 0 -- -- 64
2019-06-23 17:00:00 24.5 16 Este 27 Sudeste 0 -- -- 69
2019-06-23 16:00:00 24.7 10 Sur 24 Este 0 -- -- 68
2019-06-23 15:00:00 26 13 Sudeste 28 Sudeste 0 -- -- 62
2019-06-23 14:00:00 26.2 7 Sudeste 19 Sudeste 0 -- -- 63
2019-06-23 13:00:00 28.1 10 Sudeste 18 Nordeste 0 -- -- 54
2019-06-23 12:00:00 26.5 6 Este 21 Nordeste 0 -- -- 57
2019-06-23 11:00:00 24.5 12 Este 20 Nordeste 0 -- -- 65
2019-06-23 10:00:00 23.7 6 Sudoeste 15 Sudoeste 0 -- -- 64
2019-06-23 09:00:00 21.9 7 Sudoeste 12 Sudoeste 0 -- -- 72
2019-06-23 08:00:00 20.2 3 Oeste 6 Oeste 0 -- -- 79
2019-06-23 07:00:00 18.8 2 Oeste 8 Noroeste 0 -- -- 81
2019-06-23 06:00:00 18.8 0 Calma 7 Oeste 0 -- -- 81
2019-06-23 05:00:00 20 2 Oeste 13 Oeste 0 -- -- 76
2019-06-23 04:00:00 20.1 2 Oeste 13 Oeste 0 -- -- 77
2019-06-23 03:00:00 19.9 6 Sudoeste 12 Oeste 0 -- -- 78
2019-06-23 02:00:00 20.5 4 Oeste 13 Sudoeste 0 -- -- 76
2019-06-23 01:00:00 20.4 2 Oeste 11 Oeste 0 -- -- 79
2019-06-23 00:00:00 20.8 6 Sudoeste 13 Oeste 0 -- -- 84
2019-06-22 23:00:00 20.9 7 Sudoeste 16 Oeste 0 -- -- 84
2019-06-22 22:00:00 21.4 9 Sudoeste 17 Sudoeste 0 -- -- 80
2019-06-22 21:00:00 22.3 10 Sudoeste 26 Sudoeste 0 -- -- 73
2019-06-22 20:00:00 24.1 12 Sudoeste 24 Sudoeste 0 -- -- 66
2019-06-22 19:00:00 24.5 15 Sudoeste 23 Sudeste 0 -- -- 64
2019-06-22 18:00:00 21.9 19 Sudeste 26 Sudeste 0 -- -- 76
2019-06-22 17:00:00 22.5 13 Sudeste 21 Sudeste 0 -- -- 71
2019-06-22 16:00:00 22.9 11 Sudeste 16 Sudeste 0 -- -- 65
2019-06-22 15:00:00 22.3 10 Sudeste 18 Este 0 -- -- 66
2019-06-22 14:00:00 22.7 10 Este 21 Este 0 -- -- 64
2019-06-22 13:00:00 22.2 12 Este 21 Este 0 -- -- 64
2019-06-22 12:00:00 22.1 12 Sudeste 18 Sudeste 0 -- -- 60
2019-06-22 11:00:00 22.1 10 Sudeste 14 Sudeste 0 -- -- 61
2019-06-22 10:00:00 21.8 9 Sudeste 12 Sudeste 0 -- -- 62
2019-06-22 09:00:00 20.8 4 Sur 15 Oeste 0 -- -- 63
2019-06-22 08:00:00 20.2 7 Sudoeste 18 Oeste 0 -- -- 63
2019-06-22 07:00:00 20 8 Noroeste 20 Noroeste 0 -- -- 60
2019-06-22 06:00:00 20.2 8 Noroeste 20 Noroeste 0 -- -- 59
2019-06-22 05:00:00 20.6 6 Noroeste 24 Noroeste 0 -- -- 58
2019-06-22 04:00:00 20.7 14 Noroeste 30 Noroeste 0 -- -- 58
2019-06-22 03:00:00 20.9 14 Noroeste 32 Norte 0 -- -- 57
2019-06-22 02:00:00 20.5 12 Noroeste 26 Norte 0 -- -- 59
2019-06-22 01:00:00 20.7 13 Noroeste 23 Noroeste 0 -- -- 59
2019-06-22 00:00:00 20.6 9 Noroeste 17 Norte 0 -- -- 61
2019-06-21 23:00:00 22 7 Norte 13 Noroeste 0 -- -- 58
2019-06-21 22:00:00 22.3 7 Norte 22 Noroeste 0 -- -- 63
2019-06-21 21:00:00 22.5 15 Norte 29 Norte 0 -- -- 63
2019-06-21 20:00:00 22.7 10 Norte 31 Nordeste 0 -- -- 69
2019-06-21 19:00:00 23.5 13 Nordeste 30 Norte 0 -- -- 67
2019-06-21 18:00:00 23.4 14 Nordeste 33 Nordeste 0 -- -- 68
2019-06-21 17:00:00 24.1 18 Nordeste 32 Nordeste 0 -- -- 62
2019-06-21 16:00:00 23.5 17 Nordeste 31 Norte 0 -- -- 67
2019-06-21 15:00:00 24.1 11 Nordeste 27 Nordeste 0 -- -- 66
2019-06-21 14:00:00 25.3 11 Nordeste 29 Nordeste 0 -- -- 59
2019-06-21 13:00:00 24.4 19 Nordeste 31 Nordeste 0 -- -- 64
2019-06-21 12:00:00 25.2 15 Este 22 Este 0 -- -- 55
2019-06-21 11:00:00 25 8 Este 18 Este 0 -- -- 56
2019-06-21 10:00:00 24.6 6 Norte 21 Noroeste 0 -- -- 58
2019-06-21 09:00:00 21.8 10 Noroeste 19 Noroeste 0 -- -- 71
2019-06-21 08:00:00 19.8 6 Noroeste 17 Noroeste 0 -- -- 84
2019-06-21 07:00:00 18 8 Noroeste 18 Norte 0 -- -- 85
2019-06-21 06:00:00 18.6 8 Noroeste 13 Noroeste 0 -- -- 83
2019-06-21 05:00:00 19.1 4 Noroeste 11 Norte 0 -- -- 81
2019-06-21 04:00:00 19.8 4 Norte 19 Norte 0 -- -- 82
2019-06-21 03:00:00 20.1 12 Nordeste 24 Nordeste 0 -- -- 82
2019-06-21 02:00:00 19.6 2 Norte 5 Noroeste 0 -- -- 80
2019-06-21 01:00:00 20 3 Noroeste 6 Norte 0 -- -- 79
2019-06-21 00:00:00 20.3 2 Sur 9 Noroeste 0 -- -- 80
2019-06-20 23:00:00 20.6 0 Calma 5 Noroeste 0 -- -- 80
2019-06-20 22:00:00 20.8 2 Sudeste 10 Nordeste 0 -- -- 82
2019-06-20 21:00:00 21.2 5 Este 12 Sudeste 0 -- -- 78
2019-06-20 20:00:00 22.1 3 Sudeste 6 Sudeste 0 -- -- 76
2019-06-20 19:00:00 21.9 3 Sur 10 Sudeste 0 -- -- 78
2019-06-20 18:00:00 21.8 5 Sudeste 22 Este 0 -- -- 78
2019-06-20 17:00:00 21.9 9 Sudeste 28 Sudeste 0 -- -- 75
2019-06-20 16:00:00 24 12 Sudeste 24 Este 0 -- -- 63
2019-06-20 15:00:00 23.9 7 Noroeste 31 Nordeste 0 -- -- 66
2019-06-20 14:00:00 22.2 10 Sudeste 26 Sudeste 0 -- -- 75
2019-06-20 13:00:00 21.7 13 Sudeste 24 Sudeste 0 -- -- 78
2019-06-20 12:00:00 21.3 12 Sudeste 18 Este 0 -- -- 80
2019-06-20 11:00:00 20.8 10 Este 19 Este 0 -- -- 82
2019-06-20 10:00:00 19.9 9 Este 17 Sudeste 0 -- -- 91
2019-06-20 09:00:00 18.4 6 Sudeste 18 Este 0 -- -- 93
2019-06-20 08:00:00 18.7 8 Este 19 Norte 0 -- -- 91
2019-06-20 07:00:00 19.3 6 Norte 26 Norte 0 -- -- 89
2019-06-20 06:00:00 19 11 Nordeste 23 Este 0 -- -- 92
2019-06-20 05:00:00 18.9 12 Nordeste 28 Norte 0 -- -- 92
2019-06-20 04:00:00 19.5 8 Nordeste 13 Nordeste 0 -- -- 86
2019-06-20 03:00:00 19.8 2 Este 6 Sudeste 0 -- -- 83
2019-06-20 02:00:00 20.1 4 Noroeste 8 Oeste 0 -- -- 80
2019-06-20 01:00:00 20.3 0 Calma 6 Norte 0 -- -- 80
2019-06-20 00:00:00 20.7 4 Noroeste 10 Sudoeste 0 -- -- 80
2019-06-19 23:00:00 21.3 5 Oeste 13 Sudoeste 0 -- -- 80
2019-06-19 22:00:00 21.7 4 Oeste 14 Sudoeste 0 -- -- 78
2019-06-19 21:00:00 22 7 Sudoeste 13 Sudoeste 0 -- -- 78
2019-06-19 20:00:00 22 8 Sudeste 19 Sudeste 0 -- -- 76
2019-06-19 19:00:00 22.6 11 Sudeste 27 Sur 0 -- -- 73
2019-06-19 18:00:00 24.4 14 Sur 28 Sur 0 -- -- 64
2019-06-19 17:00:00 24.2 14 Sur 28 Sudoeste 0 -- -- 62
2019-06-19 16:00:00 23 12 Sudeste 24 Sudeste 0 -- -- 70
2019-06-19 15:00:00 22.6 13 Sudeste 27 Sudeste 0 -- -- 72
2019-06-19 14:00:00 21.3 19 Sudeste 27 Sudeste 0 -- -- 79
2019-06-19 13:00:00 21.2 16 Sudeste 27 Sudeste 0 -- -- 78
2019-06-19 12:00:00 21.2 18 Sudeste 24 Sudeste 0 -- -- 78
2019-06-19 11:00:00 22.2 10 Sudeste 15 Sudeste 0 -- -- 71
2019-06-19 10:00:00 22.4 9 Nordeste 19 Nordeste 0 -- -- 67
2019-06-19 09:00:00 22.2 6 Este 12 Sur 0 -- -- 66
2019-06-19 08:00:00 20.1 5 Sur 22 Sur 0 -- -- 79
2019-06-19 07:00:00 19.7 6 Sudoeste 22 Sur 0 -- -- 78
2019-06-19 06:00:00 19.1 19 Sur 29 Sur 0 -- -- 82
2019-06-19 05:00:00 20 9 Sudeste 19 Sudeste 0 -- -- 70
2019-06-19 04:00:00 20.2 6 Sudoeste 16 Oeste 0 -- -- 63
2019-06-19 03:00:00 20.8 9 Noroeste 21 Oeste 0 -- -- 62
2019-06-19 02:00:00 21.8 8 Sudoeste 23 Oeste 0 -- -- 52
2019-06-19 01:00:00 22.2 12 Oeste 24 Oeste 0 -- -- 50
2019-06-19 00:00:00 21.4 10 Sudoeste 15 Sudoeste 0 -- -- 60
2019-06-18 23:00:00 21.5 10 Sudeste 20 Sudeste 0 -- -- 64
2019-06-18 22:00:00 21.7 7 Sudoeste 30 Sudoeste 0 -- -- 66
2019-06-18 21:00:00 22.9 18 Sudoeste 28 Sudoeste 0 -- -- 61
2019-06-18 20:00:00 24.9 10 Sur 33 Sudoeste 0 -- -- 53
2019-06-18 19:00:00 25.3 14 Sudoeste 39 Sudoeste 0 -- -- 53
2019-06-18 18:00:00 25.7 23 Sur 37 Sudoeste 0 -- -- 51
2019-06-18 17:00:00 27.1 24 Sudoeste 48 Sudoeste 0 -- -- 41
2019-06-18 16:00:00 27.1 30 Sudoeste 48 Sudoeste 0 -- -- 40
2019-06-18 15:00:00 26.5 26 Sur 42 Sur 0 -- -- 48
2019-06-18 14:00:00 26 25 Sur 36 Sur 0 -- -- 44
2019-06-18 13:00:00 27.2 14 Sur 31 Sur 0 -- -- 44
2019-06-18 12:00:00 25.7 5 Sudeste 14 Nordeste 0 -- -- 44
2019-06-18 11:00:00 23.8 6 Este 12 Sudeste 0 -- -- 55
2019-06-18 10:00:00 22.9 7 Sudeste 9 Sudeste 0 -- -- 55
2019-06-18 09:00:00 21.1 3 Sudeste 5 Sudeste 0 -- -- 58
2019-06-18 08:00:00 21.5 3 Sudeste 8 Sudeste 0 -- -- 60
2019-06-18 07:00:00 19.2 2 Oeste 6 Oeste 0 -- -- 59
2019-06-18 06:00:00 19.4 0 Calma 10 Oeste 0 -- -- 65
2019-06-18 05:00:00 20.3 3 Oeste 12 Oeste 0 -- -- 50
2019-06-18 04:00:00 21 6 Oeste 17 Oeste 0 -- -- 50
2019-06-18 03:00:00 21 9 Oeste 21 Oeste 0 -- -- 58
2019-06-18 02:00:00 19 0 Calma 7 Noroeste 0 -- -- 64
2019-06-18 01:00:00 20.1 2 Oeste 8 Oeste 0 -- -- 64
2019-06-18 00:00:00 20.6 4 Oeste 13 Oeste 0 -- -- 65
2019-06-17 23:00:00 21.4 6 Oeste 16 Oeste 0 -- -- 67
2019-06-17 22:00:00 21.8 7 Oeste 16 Sudoeste 0 -- -- 72
2019-06-17 21:00:00 22.7 8 Oeste 16 Oeste 0 -- -- 67
2019-06-17 20:00:00 21.9 8 Sur 16 Sudeste 0 -- -- 74
2019-06-17 19:00:00 20.7 14 Sudeste 27 Sudeste 0 -- -- 84
2019-06-17 18:00:00 21.2 16 Sudeste 27 Sudeste 0 -- -- 82
2019-06-17 17:00:00 21.8 14 Sudeste 18 Sudeste 0 -- -- 72
2019-06-17 16:00:00 22.5 12 Sudeste 19 Sudeste 0 -- -- 74
2019-06-17 15:00:00 22.7 10 Sudeste 14 Sudeste 0 -- -- 66
2019-06-17 14:00:00 22.3 8 Sudeste 15 Sudeste 0 -- -- 73
2019-06-17 13:00:00 23 9 Sudeste 15 Este 0 -- -- 62
2019-06-17 12:00:00 24.2 10 Sudeste 14 Este 0 -- -- 50
2019-06-17 11:00:00 24.4 5 Sudeste 11 Sudeste 0 -- -- 53
2019-06-17 10:00:00 24.6 4 Sudeste 12 Oeste 0 -- -- 48
2019-06-17 09:00:00 22.1 2 Sur 5 Sur 0 -- -- 66
2019-06-17 08:00:00 18.7 2 Oeste 7 Sudoeste 0 -- -- 74
2019-06-17 07:00:00 16.7 4 Oeste 9 Noroeste 0 -- -- 79
2019-06-17 06:00:00 16.5 4 Oeste 14 Sudoeste 0 -- -- 81
2019-06-17 05:00:00 17.1 4 Oeste 11 Oeste 0 -- -- 79
2019-06-17 04:00:00 18.7 5 Noroeste 21 Noroeste 0 -- -- 73
2019-06-17 03:00:00 18.9 8 Oeste 16 Oeste 0 -- -- 73
2019-06-17 02:00:00 19.4 10 Oeste 21 Noroeste 0 -- -- 70
2019-06-17 01:00:00 19.7 7 Noroeste 14 Oeste 0 -- -- 68
2019-06-17 00:00:00 20.5 4 Noroeste 14 Norte 0 -- -- 66
2019-06-16 23:00:00 21.4 5 Noroeste 12 Oeste 0 -- -- 62
2019-06-16 22:00:00 22.2 6 Oeste 16 Oeste 0 -- -- 62
2019-06-16 21:00:00 23 8 Sudoeste 15 Sudoeste 0 -- -- 59
2019-06-16 20:00:00 23.8 9 Sudoeste 18 Sur 0 -- -- 52
2019-06-16 19:00:00 22.3 8 Sudeste 20 Sudeste 0 -- -- 63
2019-06-16 18:00:00 21.6 13 Sudeste 24 Sudeste 0 -- -- 60
2019-06-16 17:00:00 21.9 14 Sudeste 22 Sur 0 -- -- 53
2019-06-16 16:00:00 21.7 10 Sudeste 19 Sudeste 0 -- -- 58
2019-06-16 15:00:00 21.6 9 Sudeste 25 Este 0 -- -- 59
2019-06-16 14:00:00 22.6 12 Este 26 Sudeste 0 -- -- 49
2019-06-16 13:00:00 22.9 9 Nordeste 26 Este 0 -- -- 48
2019-06-16 12:00:00 23.2 11 Este 27 Este 0 -- -- 45
2019-06-16 11:00:00 23.7 9 Norte 24 Nordeste 0 -- -- 40
2019-06-16 10:00:00 22.8 9 Noroeste 28 Noroeste 0 -- -- 42
2019-06-16 09:00:00 21.7 9 Noroeste 20 Noroeste 0 -- -- 46
2019-06-16 08:00:00 19.5 7 Oeste 16 Noroeste 0 -- -- 55
2019-06-16 07:00:00 17.9 8 Noroeste 15 Noroeste 0 -- -- 59
2019-06-16 06:00:00 17.2 5 Noroeste 15 Noroeste 0 -- -- 59
2019-06-16 05:00:00 17.5 8 Noroeste 15 Noroeste 0 -- -- 57
2019-06-16 04:00:00 17.8 9 Noroeste 16 Noroeste 0 -- -- 56
2019-06-16 03:00:00 18.9 6 Noroeste 18 Noroeste 0 -- -- 53
2019-06-16 02:00:00 18.6 9 Noroeste 19 Noroeste 0 -- -- 56
2019-06-16 01:00:00 19.2 9 Noroeste 23 Noroeste 0 -- -- 54
2019-06-16 00:00:00 19.9 12 Noroeste 21 Norte 0 -- -- 53
2019-06-15 23:00:00 19.5 8 Noroeste 23 Noroeste 0 -- -- 57
2019-06-15 22:00:00 20.1 10 Noroeste 21 Norte 0 -- -- 56
2019-06-15 21:00:00 20.9 9 Nordeste 22 Norte 0 -- -- 60
2019-06-15 20:00:00 22 9 Norte 26 Norte 0 -- -- 57
2019-06-15 19:00:00 22 13 Norte 28 Nordeste 0 -- -- 59
2019-06-15 18:00:00 22.6 18 Nordeste 32 Nordeste 0 -- -- 56
2019-06-15 17:00:00 21.5 10 Este 26 Este 0 -- -- 69
2019-06-15 16:00:00 21.8 11 Sudeste 25 Este 0 -- -- 66
2019-06-15 15:00:00 21.6 9 Este 26 Sudeste 0 -- -- 65
2019-06-15 14:00:00 21.9 12 Sudeste 26 Este 0 -- -- 64
2019-06-15 13:00:00 22 8 Este 22 Este 0 -- -- 60
2019-06-15 12:00:00 20.7 8 Este 19 Este 0 -- -- 66
2019-06-15 11:00:00 20.1 9 Este 26 Este 0 -- -- 69
2019-06-15 10:00:00 20.4 10 Este 23 Este 0 -- -- 68
2019-06-15 09:00:00 19.4 9 Nordeste 23 Nordeste 0 -- -- 76
2019-06-15 08:00:00 18.8 13 Nordeste 25 Nordeste 0 -- -- 79
2019-06-15 07:00:00 17.1 5 Sudeste 9 Sudeste 0 -- -- 88
2019-06-15 06:00:00 16.4 3 Oeste 15 Norte 0 -- -- 83
2019-06-15 05:00:00 18.4 12 Norte 19 Norte 0 -- -- 81
2019-06-15 04:00:00 16.7 0 Calma 6 Oeste 0 -- -- 86
2019-06-15 03:00:00 17.5 2 Sudoeste 5 Sudoeste 0 -- -- 84
2019-06-15 02:00:00 18.2 3 Oeste 5 Sudoeste 0 -- -- 81
2019-06-15 01:00:00 20 0 Calma 9 Norte 0 -- -- 72
2019-06-15 00:00:00 21.6 5 Nordeste 12 Nordeste 0 -- -- 63
2019-06-14 23:00:00 22 6 Nordeste 9 Nordeste 0 -- -- 61
2019-06-14 22:00:00 22.4 5 Nordeste 8 Nordeste 0 -- -- 60
2019-06-14 21:00:00 22.1 2 Sudeste 15 Este 0 -- -- 64
2019-06-14 20:00:00 23 9 Este 18 Nordeste 0 -- -- 59
2019-06-14 19:00:00 25.1 8 Nordeste 15 Este 0 -- -- 48
2019-06-14 18:00:00 23.8 7 Este 21 Sudeste 0 -- -- 50
2019-06-14 17:00:00 24.3 11 Sudeste 21 Noroeste 0 -- -- 50
2019-06-14 16:00:00 24.5 13 Noroeste 30 Nordeste 0 -- -- 46
2019-06-14 15:00:00 23.5 9 Nordeste 23 Nordeste 0 -- -- 48
2019-06-14 14:00:00 24.5 9 Norte 37 Norte 0 -- -- 44
2019-06-14 13:00:00 23.3 8 Oeste 41 Nordeste 0 -- -- 51
2019-06-14 12:00:00 23 15 Noroeste 42 Norte 0 -- -- 50
2019-06-14 11:00:00 22 12 Noroeste 37 Noroeste 0 -- -- 56
2019-06-14 10:00:00 21.6 14 Noroeste 29 Noroeste 0 -- -- 59
2019-06-14 09:00:00 20.4 11 Noroeste 34 Norte 0 -- -- 62
2019-06-14 08:00:00 20.1 17 Norte 36 Norte 0 -- -- 65
2019-06-14 07:00:00 19.6 12 Norte 29 Noroeste 0 -- -- 64
2019-06-14 06:00:00 18.3 9 Noroeste 22 Noroeste 0 -- -- 62
2019-06-14 05:00:00 15.9 14 Noroeste 27 Noroeste 0 -- -- 66
2019-06-14 04:00:00 15.6 14 Noroeste 25 Noroeste 0 -- -- 71
2019-06-14 03:00:00 15.6 13 Noroeste 21 Norte 0 -- -- 80
2019-06-14 02:00:00 17.5 8 Norte 13 Norte 0 -- -- 55
2019-06-14 01:00:00 16.4 4 Noroeste 12 Noroeste 0 -- -- 66
2019-06-14 00:00:00 16.5 5 Noroeste 13 Norte 0 -- -- 73
2019-06-13 23:00:00 16.7 7 Noroeste 13 Noroeste 0 -- -- 82
2019-06-13 22:00:00 17.3 5 Noroeste 10 Norte 0 -- -- 80
2019-06-13 21:00:00 17.9 4 Nordeste 12 Este 0 -- -- 79
2019-06-13 20:00:00 18.4 5 Este 12 Sudeste 0 -- -- 76
2019-06-13 19:00:00 18.9 7 Sudeste 15 Sudeste 0 -- -- 73
2019-06-13 18:00:00 19.1 9 Sudeste 17 Sudeste 0 -- -- 72
2019-06-13 17:00:00 19 9 Sudeste 23 Sur 0 -- -- 72
2019-06-13 16:00:00 19.3 14 Sur 21 Sudeste 0 -- -- 72
2019-06-13 15:00:00 19.3 12 Sudeste 23 Sudeste 0 -- -- 75
2019-06-13 14:00:00 19.2 16 Sudeste 24 Sudeste 0 -- -- 74
2019-06-13 13:00:00 19.1 12 Sudeste 24 Sudeste 0 -- -- 75
2019-06-13 12:00:00 19 13 Sudeste 20 Sudeste 0 -- -- 76
2019-06-13 11:00:00 18.8 7 Sudeste 12 Este 0 -- -- 77
2019-06-13 10:00:00 18.1 5 Sudeste 10 Sudeste 0 -- -- 72
2019-06-13 09:00:00 16.8 4 Sudeste 6 Sudeste 0 -- -- 78
2019-06-13 08:00:00 15.2 0 Calma 8 Noroeste 0 -- -- 87
2019-06-13 07:00:00 13.3 4 Noroeste 9 Oeste 0 -- -- 90
2019-06-13 06:00:00 12.4 5 Oeste 9 Noroeste 0 -- -- 90
2019-06-13 05:00:00 12.7 5 Oeste 14 Noroeste 0 -- -- 89
2019-06-13 04:00:00 13.6 6 Noroeste 9 Noroeste 0 -- -- 87
2019-06-13 03:00:00 14.2 4 Noroeste 6 Noroeste 0 -- -- 85
2019-06-13 02:00:00 14.9 3 Noroeste 8 Noroeste 0 -- -- 83
2019-06-13 01:00:00 15.5 0 Calma 6 Noroeste 0 -- -- 82
2019-06-13 00:00:00 16.4 3 Noroeste 9 Sudoeste 0 -- -- 79
2019-06-12 23:00:00 16.7 4 Sudoeste 13 Oeste 0 -- -- 79
2019-06-12 22:00:00 17.2 5 Oeste 23 Sudoeste 0 -- -- 76
2019-06-12 21:00:00 17.8 13 Sudoeste 28 Sudoeste 0 -- -- 74
2019-06-12 20:00:00 18.8 18 Sur 31 Sur 0 -- -- 68
2019-06-12 19:00:00 19.4 18 Sur 32 Sudoeste 0 -- -- 65
2019-06-12 18:00:00 19.4 19 Sur 32 Sur 0 -- -- 69
2019-06-12 17:00:00 19.3 19 Sur 30 Sur 0 -- -- 71
2019-06-12 16:00:00 18.4 23 Sudeste 35 Sudeste 0 -- -- 73
2019-06-12 15:00:00 17.9 20 Sudeste 31 Sudeste 0 -- -- 69
2019-06-12 14:00:00 17.5 17 Sudeste 24 Sudeste 0 -- -- 65
2019-06-12 13:00:00 17.2 13 Sudeste 18 Este 0 -- -- 62
2019-06-12 12:00:00 16.9 10 Este 14 Sudeste 0 -- -- 61
2019-06-12 11:00:00 16.5 6 Sudeste 10 Sudeste 0 -- -- 66
2019-06-12 10:00:00 15.2 6 Sur 12 Sudoeste 0 -- -- 78
2019-06-12 09:00:00 13 6 Oeste 11 Oeste 0 -- -- 93
2019-06-12 08:00:00 10.8 2 Noroeste 9 Oeste 0 -- -- 94
2019-06-12 07:00:00 9.6 5 Oeste 16 Noroeste 0 -- -- 92
2019-06-12 06:00:00 10.6 6 Oeste 12 Oeste 0 -- -- 92
2019-06-12 05:00:00 10.8 4 Oeste 9 Sudoeste 0 -- -- 91
2019-06-12 04:00:00 10.6 4 Noroeste 8 Noroeste 0 -- -- 92
2019-06-12 03:00:00 11.2 3 Oeste 9 Oeste 0 -- -- 92
2019-06-12 02:00:00 11.6 2 Noroeste 7 Noroeste 0 -- -- 92
2019-06-12 01:00:00 11.9 3 Noroeste 8 Noroeste 0 -- -- 91
2019-06-12 00:00:00 12.5 5 Noroeste 12 Oeste 0 -- -- 91
2019-06-11 23:00:00 13 7 Oeste 13 Oeste 0.2 -- -- 90
2019-06-11 22:00:00 13.2 0 Calma 11 Noroeste 2 -- -- 90
2019-06-11 21:00:00 13.1 5 Oeste 12 Noroeste 1.2 -- -- 89
2019-06-11 20:00:00 13.5 5 Oeste 10 Oeste 0.2 -- -- 87
2019-06-11 19:00:00 13.4 4 Norte 9 Noroeste 0.2 -- -- 86
2019-06-11 18:00:00 13.5 3 Oeste 8 Noroeste 0.4 -- -- 87
2019-06-11 17:00:00 13.5 5 Nordeste 14 Nordeste 1.6 -- -- 89
2019-06-11 16:00:00 13.8 4 Noroeste 15 Noroeste 2 -- -- 89
2019-06-11 15:00:00 13.4 4 Noroeste 13 Norte 2.2 -- -- 90
2019-06-11 14:00:00 13.7 7 Noroeste 17 Norte 1 -- -- 90
2019-06-11 13:00:00 13.6 10 Noroeste 21 Noroeste 1.6 -- -- 89
2019-06-11 12:00:00 14.1 9 Norte 21 Norte 0.2 -- -- 85
2019-06-11 11:00:00 15.2 7 Noroeste 18 Noroeste 0.2 -- -- 83
2019-06-11 10:00:00 15.4 3 Sur 10 Oeste 0 -- -- 87
2019-06-11 09:00:00 15 4 Noroeste 12 Noroeste 0.2 -- -- 84
2019-06-11 08:00:00 14.6 5 Noroeste 10 Oeste 0 -- -- 88
2019-06-11 07:00:00 14.1 8 Noroeste 13 Noroeste 0 -- -- 88
2019-06-11 06:00:00 14.5 4 Norte 11 Oeste 2.8 -- -- 83
2019-06-11 05:00:00 16.8 3 Oeste 15 Norte 1.2 -- -- 68
2019-06-11 04:00:00 18 6 Noroeste 16 Noroeste 0 -- -- 53
2019-06-11 03:00:00 17.7 9 Noroeste 16 Norte 0 -- -- 53
2019-06-11 02:00:00 17.5 6 Noroeste 14 Noroeste 0 -- -- 54
2019-06-11 01:00:00 18.4 6 Noroeste 17 Noroeste 0 -- -- 51
2019-06-11 00:00:00 18.4 8 Noroeste 23 Norte 0 -- -- 51
2019-06-10 23:00:00 18.6 11 Noroeste 27 Noroeste 0 -- -- 51
2019-06-10 22:00:00 18.9 9 Noroeste 23 Noroeste 0 -- -- 53
2019-06-10 21:00:00 20.1 9 Noroeste 25 Noroeste 0 -- -- 53
2019-06-10 20:00:00 21.7 11 Noroeste 26 Noroeste 0 -- -- 49
2019-06-10 19:00:00 21.9 10 Nordeste 24 Este 0 -- -- 56
2019-06-10 18:00:00 23.2 12 Nordeste 25 Nordeste 0 -- -- 50
2019-06-10 17:00:00 22.8 11 Nordeste 28 Nordeste 0 -- -- 51
2019-06-10 16:00:00 22.9 16 Nordeste 37 Nordeste 0 -- -- 53
2019-06-10 15:00:00 24 12 Nordeste 35 Nordeste 0 -- -- 47
2019-06-10 14:00:00 22.5 14 Nordeste 32 Nordeste 0 -- -- 56
2019-06-10 13:00:00 24.1 12 Nordeste 27 Este 0 -- -- 48
2019-06-10 12:00:00 25.3 13 Nordeste 30 Norte 0 -- -- 44
2019-06-10 11:00:00 24.4 13 Norte 33 Norte 0 -- -- 43
2019-06-10 10:00:00 23.1 18 Noroeste 42 Noroeste 0 -- -- 48
2019-06-10 09:00:00 22.2 17 Noroeste 35 Noroeste 0 -- -- 50
2019-06-10 08:00:00 21.2 14 Noroeste 33 Noroeste 0 -- -- 53
2019-06-10 07:00:00 20.6 12 Noroeste 26 Noroeste 0 -- -- 55
2019-06-10 06:00:00 20.9 8 Noroeste 18 Oeste 0 -- -- 57
2019-06-10 05:00:00 22.2 12 Noroeste 20 Oeste 0 -- -- 54
2019-06-10 04:00:00 21.6 6 Oeste 16 Noroeste 0 -- -- 55
2019-06-10 03:00:00 22.1 4 Nordeste 21 Noroeste 0 -- -- 53
2019-06-10 02:00:00 22 13 Noroeste 24 Norte 0 -- -- 55
2019-06-10 01:00:00 19.7 0 Calma 11 Sudoeste 0 -- -- 72
2019-06-10 00:00:00 19.8 5 Noroeste 9 Noroeste 0 -- -- 68
2019-06-09 23:00:00 20.1 2 Norte 17 Oeste 0 -- -- 68
2019-06-09 22:00:00 20.6 6 Oeste 28 Norte 0 -- -- 65
2019-06-09 21:00:00 19.9 5 Sudoeste 27 Norte 0 -- -- 70
2019-06-09 20:00:00 20 7 Nordeste 28 Norte 0 -- -- 70
2019-06-09 19:00:00 20 9 Norte 23 Nordeste 0 -- -- 69
2019-06-09 18:00:00 20.2 10 Norte 24 Nordeste 0 -- -- 66
2019-06-09 17:00:00 20.8 9 Norte 34 Nordeste 0 -- -- 61
2019-06-09 16:00:00 21 10 Nordeste 27 Norte 0 -- -- 60
2019-06-09 15:00:00 21.4 13 Nordeste 26 Nordeste 0 -- -- 68
2019-06-09 14:00:00 22 12 Nordeste 31 Nordeste 0 -- -- 67
2019-06-09 13:00:00 22 14 Nordeste 28 Nordeste 0 -- -- 58
2019-06-09 12:00:00 21.7 12 Norte 28 Norte 0 -- -- 48
2019-06-09 11:00:00 21.4 15 Norte 26 Norte 0 -- -- 40
2019-06-09 10:00:00 21.5 9 Nordeste 19 Nordeste 0 -- -- 38
2019-06-09 09:00:00 19.8 4 Noroeste 10 Oeste 0 -- -- 43
2019-06-09 08:00:00 17.4 2 Sudoeste 11 Sudoeste 0 -- -- 57
2019-06-09 07:00:00 18.5 8 Norte 17 Norte 0 -- -- 56
2019-06-09 06:00:00 19 9 Norte 18 Norte 0 -- -- 44
2019-06-09 05:00:00 16.2 2 Sudeste 9 Oeste 0 -- -- 58
2019-06-09 04:00:00 17.1 4 Oeste 5 Oeste 0 -- -- 50
2019-06-09 03:00:00 17.8 0 Calma 14 Noroeste 0 -- -- 46
2019-06-09 02:00:00 17.6 0 Calma 8 Sudoeste 0 -- -- 45
2019-06-09 01:00:00 18.8 5 Sudoeste 13 Oeste 0 -- -- 46
2019-06-09 00:00:00 19.7 5 Noroeste 18 Noroeste 0 -- -- 33
2019-06-08 23:00:00 20.2 9 Noroeste 18 Noroeste 0 -- -- 30
2019-06-08 22:00:00 21.1 4 Noroeste 9 Noroeste 0 -- -- 26
2019-06-08 21:00:00 21.5 2 Noroeste 9 Este 0 -- -- 28
2019-06-08 20:00:00 22.6 5 Este 13 Este 0 -- -- 23
2019-06-08 19:00:00 22.9 6 Este 16 Este 0 -- -- 25
2019-06-08 18:00:00 22.3 8 Este 19 Este 0 -- -- 30
2019-06-08 17:00:00 21.6 10 Este 23 Este 0 -- -- 36
2019-06-08 16:00:00 22.2 7 Nordeste 22 Norte 0 -- -- 39
2019-06-08 15:00:00 21 9 Este 32 Este 0 -- -- 42
2019-06-08 14:00:00 20.7 14 Este 31 Este 0 -- -- 42
2019-06-08 13:00:00 20.5 10 Nordeste 35 Norte 0 -- -- 46
2019-06-08 12:00:00 20.2 10 Este 29 Noroeste 0 -- -- 51
2019-06-08 11:00:00 20.6 9 Este 27 Nordeste 0 -- -- 47
2019-06-08 10:00:00 20.7 8 Norte 26 Nordeste 0 -- -- 43
2019-06-08 09:00:00 19.8 7 Norte 20 Oeste 0 -- -- 46
2019-06-08 08:00:00 18.8 6 Noroeste 19 Noroeste 0 -- -- 45
2019-06-08 07:00:00 16 5 Noroeste 9 Noroeste 0 -- -- 56
2019-06-08 06:00:00 15.9 5 Noroeste 9 Noroeste 0 -- -- 57
2019-06-08 05:00:00 16.3 5 Noroeste 12 Noroeste 0 -- -- 57
2019-06-08 04:00:00 16.6 5 Noroeste 14 Noroeste 0 -- -- 56
2019-06-08 03:00:00 17 7 Noroeste 12 Noroeste 0 -- -- 56
2019-06-08 02:00:00 18 4 Noroeste 11 Noroeste 0 -- -- 51
2019-06-08 01:00:00 18.5 5 Noroeste 12 Noroeste 0 -- -- 50
2019-06-08 00:00:00 17.3 4 Norte 15 Norte 0 -- -- 73
2019-06-07 23:00:00 17.6 5 Nordeste 17 Este 0 -- -- 71
2019-06-07 22:00:00 18 7 Norte 24 Noroeste 0 -- -- 66
2019-06-07 21:00:00 18.3 9 Norte 30 Norte 0 -- -- 68
2019-06-07 20:00:00 18.7 10 Norte 30 Nordeste 0 -- -- 69
2019-06-07 19:00:00 19.1 15 Nordeste 40 Nordeste 0 -- -- 71
2019-06-07 18:00:00 20 15 Nordeste 44 Nordeste 0 -- -- 67
2019-06-07 17:00:00 22.3 16 Este 24 Sudeste 0 -- -- 70
2019-06-07 16:00:00 22.8 14 Sudeste 29 Sur 0 -- -- 67
2019-06-07 15:00:00 22.8 23 Sur 34 Sur 0 -- -- 65
2019-06-07 14:00:00 22.4 20 Sur 36 Sudoeste 0 -- -- 67
2019-06-07 13:00:00 19.3 26 Sudeste 41 Sudeste 0 -- -- 85
2019-06-07 12:00:00 19.2 27 Sudeste 43 Sudeste 0 -- -- 86
2019-06-07 11:00:00 19.1 19 Sudeste 29 Sudeste 0 -- -- 86
2019-06-07 10:00:00 18.8 19 Sudeste 27 Sudeste 0 -- -- 87
2019-06-07 09:00:00 19.2 12 Sur 22 Sur 0 -- -- 85
2019-06-07 08:00:00 17.5 0 Calma 5 Sudeste 0 -- -- 90
2019-06-07 07:00:00 16.7 4 Sudeste 6 Sudeste 0 -- -- 89
2019-06-07 06:00:00 16.4 0 Calma 3 Noroeste 0 -- -- 89
2019-06-07 05:00:00 16.4 0 Calma 5 Oeste 0 -- -- 88
2019-06-07 04:00:00 16.7 0 Calma 5 Este 0 -- -- 86
2019-06-07 03:00:00 17.4 3 Este 9 Norte 0 -- -- 86
2019-06-07 02:00:00 16.8 5 Noroeste 12 Norte 0 -- -- 88
2019-06-07 01:00:00 17 3 Sudoeste 15 Sur 0 -- -- 87
2019-06-07 00:00:00 17.3 13 Sur 18 Sur 0 -- -- 86
2019-06-06 23:00:00 17.5 9 Sudoeste 25 Sur 0 -- -- 79
2019-06-06 22:00:00 17.8 13 Sur 28 Sudoeste 0 -- -- 78
2019-06-06 21:00:00 18.3 18 Sur 29 Sur 0 -- -- 73
2019-06-06 20:00:00 19 13 Sur 29 Sur 0 -- -- 71
2019-06-06 19:00:00 18.5 16 Sudeste 29 Sudeste 0 -- -- 77
2019-06-06 18:00:00 20 19 Sur 35 Sur 0 -- -- 68
2019-06-06 17:00:00 20.1 18 Sur 35 Sur 0 -- -- 67
2019-06-06 16:00:00 18.4 24 Sudeste 35 Sudeste 0 -- -- 76
2019-06-06 15:00:00 18.7 23 Sur 36 Sudeste 0 -- -- 75
2019-06-06 14:00:00 18.1 24 Sudeste 35 Sudeste 0 -- -- 73
2019-06-06 13:00:00 18.1 17 Sudeste 26 Sudeste 0 -- -- 68
2019-06-06 12:00:00 18.5 14 Este 19 Este 0 -- -- 63
2019-06-06 11:00:00 18.4 13 Este 18 Este 0 -- -- 62
2019-06-06 10:00:00 18.4 8 Sudeste 12 Sudeste 0 -- -- 61
2019-06-06 09:00:00 17.6 6 Sudeste 9 Este 0 -- -- 61
2019-06-06 08:00:00 15.6 2 Sur 6 Oeste 0 -- -- 65
2019-06-06 07:00:00 14.3 4 Noroeste 9 Oeste 0 -- -- 65
2019-06-06 06:00:00 14.5 5 Oeste 14 Noroeste 0 -- -- 67
2019-06-06 05:00:00 14 6 Sudoeste 14 Sudoeste 0 -- -- 70
2019-06-06 04:00:00 14.8 4 Oeste 13 Noroeste 0 -- -- 64
2019-06-06 03:00:00 15.7 3 Noroeste 15 Oeste 0 -- -- 59
2019-06-06 02:00:00 16 4 Noroeste 13 Oeste 0 -- -- 57
2019-06-06 01:00:00 16.8 7 Noroeste 13 Norte 0 -- -- 55
2019-06-06 00:00:00 17 4 Noroeste 11 Norte 0 -- -- 56
2019-06-05 23:00:00 17.4 4 Nordeste 9 Norte 0 -- -- 55
2019-06-05 22:00:00 17.9 3 Nordeste 14 Norte 0 -- -- 54
2019-06-05 21:00:00 18.6 5 Noroeste 17 Norte 0 -- -- 53
2019-06-05 20:00:00 19.4 7 Norte 22 Norte 0 -- -- 54
2019-06-05 19:00:00 19.3 8 Noroeste 24 Norte 0 -- -- 51
2019-06-05 18:00:00 19.5 12 Nordeste 34 Este 0 -- -- 64
2019-06-05 17:00:00 20.6 12 Sudeste 30 Sudeste 0 -- -- 85
2019-06-05 16:00:00 20.2 24 Sudeste 30 Sudeste 0 -- -- 84
2019-06-05 15:00:00 20.1 12 Este 26 Sudeste 0 -- -- 86
2019-06-05 14:00:00 20.3 17 Sudeste 24 Sudeste 0 -- -- 84
2019-06-05 13:00:00 20.6 12 Sudeste 21 Este 0 -- -- 80
2019-06-05 12:00:00 20.9 9 Este 14 Este 0 -- -- 77
2019-06-05 11:00:00 20.7 4 Sudeste 10 Sudeste 0 -- -- 77
2019-06-05 10:00:00 19.7 3 Sudeste 7 Sudeste 0 -- -- 80
2019-06-05 09:00:00 17.7 4 Sur 12 Sudoeste 0 -- -- 85
2019-06-05 08:00:00 17.8 4 Norte 13 Sudoeste 0 -- -- 86
2019-06-05 07:00:00 17 6 Sudoeste 16 Nordeste 0 -- -- 88
2019-06-05 06:00:00 17.5 10 Nordeste 16 Este 0 -- -- 92
2019-06-05 05:00:00 17.6 0 Calma 12 Nordeste 0 -- -- 90
2019-06-05 04:00:00 17.7 0 Calma 6 Este 0 -- -- 89
2019-06-05 03:00:00 17.8 0 Calma 4 Noroeste 0 -- -- 87
2019-06-05 02:00:00 18.2 0 Calma 6 Sudeste 0 -- -- 87
2019-06-05 01:00:00 18.8 0 Calma 13 Sudoeste 0 -- -- 82
2019-06-05 00:00:00 19.8 5 Oeste 14 Sudoeste 0 -- -- 75
2019-06-04 23:00:00 20 8 Sudoeste 19 Sudoeste 0 -- -- 75
2019-06-04 22:00:00 20.5 12 Sudoeste 24 Sudoeste 0 -- -- 69
2019-06-04 21:00:00 20.9 17 Sudoeste 31 Sudoeste 0 -- -- 64
2019-06-04 20:00:00 20.3 20 Sur 39 Sur 0 -- -- 71
2019-06-04 19:00:00 19.5 23 Sur 38 Sudeste 0 -- -- 81
2019-06-04 18:00:00 19.8 29 Sur 39 Sur 0 -- -- 76
2019-06-04 17:00:00 20.5 26 Sur 39 Sur 0 -- -- 72
2019-06-04 16:00:00 22 27 Sudeste 43 Sur 0 -- -- 58
2019-06-04 15:00:00 24.7 27 Sur 40 Sur 0 -- -- 45
2019-06-04 14:00:00 24.5 25 Sur 39 Sur 0 -- -- 47
2019-06-04 13:00:00 23.7 24 Sur 38 Sur 0 -- -- 54
2019-06-04 12:00:00 21.1 18 Sur 30 Sur 0 -- -- 70
2019-06-04 11:00:00 20.6 17 Sur 31 Sur 0 -- -- 72
2019-06-04 10:00:00 20.4 20 Sur 29 Sur 0 -- -- 70
2019-06-04 09:00:00 22.2 9 Sudoeste 18 Sudoeste 0 -- -- 55
2019-06-04 08:00:00 20.2 5 Oeste 17 Sudoeste 0 -- -- 57
2019-06-04 07:00:00 18.3 8 Oeste 15 Sudoeste 0 -- -- 66
2019-06-04 06:00:00 18.5 6 Oeste 14 Oeste 0 -- -- 64
2019-06-04 05:00:00 19.2 7 Oeste 13 Oeste 0 -- -- 61
2019-06-04 04:00:00 18.5 4 Noroeste 8 Sur 0 -- -- 65
2019-06-04 03:00:00 19.5 3 Este 8 Sur 0 -- -- 61
2019-06-04 02:00:00 19.7 4 Oeste 9 Oeste 0 -- -- 64
2019-06-04 01:00:00 20.4 5 Sudoeste 15 Oeste 0 -- -- 59
2019-06-04 00:00:00 20.6 4 Oeste 12 Oeste 0 -- -- 59
2019-06-03 23:00:00 21 9 Oeste 17 Noroeste 0 -- -- 60
2019-06-03 22:00:00 21.4 8 Oeste 14 Oeste 0 -- -- 58
2019-06-03 21:00:00 22.3 8 Oeste 20 Sudoeste 0 -- -- 56
2019-06-03 20:00:00 23 11 Sudoeste 26 Sudoeste 0 -- -- 55
2019-06-03 19:00:00 22.4 3 Sur 15 Sudeste 0 -- -- 63
2019-06-03 18:00:00 23.1 10 Norte 31 Norte 0 -- -- 55
2019-06-03 17:00:00 24.7 12 Nordeste 20 Nordeste 0 -- -- 60
2019-06-03 16:00:00 23.7 5 Sudeste 21 Nordeste 0 -- -- 56
2019-06-03 15:00:00 20.4 15 Nordeste 31 Este 0 -- -- 73
2019-06-03 14:00:00 19.1 20 Este 28 Este 0 -- -- 80
2019-06-03 13:00:00 19.9 14 Este 24 Este 0 -- -- 77
2019-06-03 12:00:00 19 13 Este 20 Este 0 -- -- 82
2019-06-03 11:00:00 18.9 10 Sudeste 15 Sudeste 0 -- -- 79
2019-06-03 10:00:00 18.7 6 Sudeste 10 Sudeste -- -- -- 82
2019-06-03 09:00:00 18.7 4 Sudeste 8 Sudoeste 0 -- -- 84
2019-06-03 08:00:00 17.4 5 Sudoeste 8 Sudoeste 0 -- -- 84
2019-06-03 07:00:00 16.3 5 Sudoeste 19 Norte 0 -- -- 89
2019-06-03 06:00:00 17 13 Nordeste 24 Nordeste 0 -- -- 91
2019-06-03 05:00:00 17.3 16 Nordeste 23 Nordeste 0 -- -- 88
2019-06-03 04:00:00 18.1 4 Norte 14 Norte 0 -- -- 73
2019-06-03 03:00:00 18 0 Calma 6 Noroeste 0 -- -- 68
2019-06-03 02:00:00 18.9 4 Noroeste 7 Noroeste 0 -- -- 50
2019-06-03 01:00:00 19.6 2 Noroeste 7 Noroeste 0 -- -- 52
2019-06-03 00:00:00 19.6 0 Calma 4 Sudoeste 0 -- -- 59
2019-06-02 23:00:00 20.2 3 Sur 10 Oeste 0 -- -- 56
2019-06-02 22:00:00 21.7 6 Sudoeste 14 Sudoeste 0 -- -- 49
2019-06-02 21:00:00 22.5 8 Sudoeste 16 Sudoeste 0 -- -- 47
2019-06-02 20:00:00 23.5 9 Sudoeste 17 Sur 0 -- -- 46
2019-06-02 19:00:00 24 7 Sudoeste 22 Sur 0 -- -- 48
2019-06-02 18:00:00 24.4 14 Sur 23 Sur 0 -- -- 50
2019-06-02 17:00:00 23.9 16 Sur 27 Sur 0 -- -- 53
2019-06-02 16:00:00 23.8 19 Sur 28 Sur 0 -- -- 56
2019-06-02 15:00:00 23.5 18 Sur 28 Sur 0 -- -- 59
2019-06-02 14:00:00 23.5 7 Sudeste 12 Sudeste 0 -- -- 57
2019-06-02 13:00:00 22.1 5 Nordeste 27 Nordeste 0 -- -- 66
2019-06-02 12:00:00 18.3 16 Nordeste 27 Norte 0 -- -- 83
2019-06-02 11:00:00 17.1 18 Nordeste 28 Nordeste 0 -- -- 87
2019-06-02 10:00:00 19.7 12 Nordeste 18 Nordeste 0 -- -- 72
2019-06-02 09:00:00 19.3 4 Sudeste 6 Sudeste 0 -- -- 68
2019-06-02 08:00:00 18.3 3 Sur 4 Sudeste 0 -- -- 69
2019-06-02 07:00:00 15.8 2 Noroeste 6 Noroeste 0 -- -- 66
2019-06-02 06:00:00 16.3 2 Norte 10 Noroeste 0 -- -- 63
2019-06-02 05:00:00 17.1 4 Noroeste 8 Norte 0 -- -- 61
2019-06-02 04:00:00 17.5 5 Noroeste 9 Oeste 0 -- -- 60
2019-06-02 03:00:00 18.5 5 Noroeste 11 Oeste 0 -- -- 60
2019-06-02 02:00:00 18.6 6 Oeste 12 Sudoeste 0 -- -- 68
2019-06-02 01:00:00 18.7 5 Oeste 13 Oeste 0 -- -- 66
2019-06-02 00:00:00 19 5 Oeste 13 Oeste 0 -- -- 69
2019-06-01 23:00:00 19.2 5 Oeste 15 Oeste 0 -- -- 73
2019-06-01 22:00:00 19.8 7 Sudoeste 17 Sudoeste 0 -- -- 70
2019-06-01 21:00:00 21.1 9 Sudoeste 25 Sudoeste 0 -- -- 63
2019-06-01 20:00:00 22.9 14 Sudoeste 26 Sudoeste 0 -- -- 54
2019-06-01 19:00:00 24.4 15 Sudoeste 30 Sudoeste 0 -- -- 50
2019-06-01 18:00:00 23.3 13 Sudeste 23 Sur 0 -- -- 57
2019-06-01 17:00:00 21.7 8 Sudeste 26 Sudeste 0 -- -- 68
2019-06-01 16:00:00 19.9 19 Sudeste 28 Sudeste 0 -- -- 80
2019-06-01 15:00:00 20.3 13 Este 22 Sudeste 0 -- -- 78
2019-06-01 14:00:00 20.3 9 Sudeste 15 Este 0 -- -- 68
2019-06-01 13:00:00 19.2 10 Sudeste 18 Este 0 -- -- 75
2019-06-01 12:00:00 19.2 12 Este 17 Este 0 -- -- 73
2019-06-01 11:00:00 19.3 12 Este 15 Este 0 -- -- 66
2019-06-01 10:00:00 20.7 10 Este 14 Este 0 -- -- 57
2019-06-01 09:00:00 19.7 0 Calma 5 Sur 0 -- -- 65
2019-06-01 08:00:00 16 2 Sudoeste 6 Oeste 0 -- -- 75
2019-06-01 07:00:00 14.2 3 Oeste 5 Noroeste 0 -- -- 78
2019-06-01 06:00:00 15.1 3 Oeste 8 Noroeste 0 -- -- 74
2019-06-01 05:00:00 15.5 4 Oeste 7 Noroeste 0 -- -- 73
2019-06-01 04:00:00 16.2 4 Oeste 8 Oeste 0 -- -- 70
2019-06-01 03:00:00 16.8 6 Oeste 10 Oeste 0 -- -- 67
2019-06-01 02:00:00 17.5 4 Sudoeste 6 Noroeste 0 -- -- 66
2019-06-01 01:00:00 18.4 7 Noroeste 14 Oeste 0 -- -- 60
2019-06-01 00:00:00 19 4 Oeste 9 Oeste 0 -- -- 58
2019-05-31 23:00:00 20 3 Noroeste 15 Oeste 0 -- -- 56
2019-05-31 22:00:00 21 5 Oeste 13 Oeste 0 -- -- 56
2019-05-31 21:00:00 22.1 7 Oeste 15 Oeste 0 -- -- 54
2019-05-31 20:00:00 23 10 Sudoeste 17 Sur 0 -- -- 52
2019-05-31 19:00:00 20.6 11 Sudeste 19 Sudeste 0 -- -- 68
2019-05-31 18:00:00 21 11 Sudeste 22 Sudeste 0 -- -- 65
2019-05-31 17:00:00 20.4 15 Sudeste 23 Sudeste 0 -- -- 65
2019-05-31 16:00:00 21 10 Sudeste 19 Sudeste 0 -- -- 65
2019-05-31 15:00:00 21 7 Sudeste 17 Sudeste 0 -- -- 65
2019-05-31 14:00:00 20.9 12 Sudeste 15 Sudeste 0 -- -- 60
2019-05-31 13:00:00 20.7 9 Sudeste 32 Este 0 -- -- 62
2019-05-31 12:00:00 22.3 15 Este 25 Este 0 -- -- 51
2019-05-31 11:00:00 21.8 11 Este 19 Este 0 -- -- 55
2019-05-31 10:00:00 21.7 8 Sur 12 Sudeste 0 -- -- 57
2019-05-31 09:00:00 19.9 4 Sudeste 12 Sur 0 -- -- 64
2019-05-31 08:00:00 18.8 4 Sudeste 14 Noroeste 0 -- -- 65
2019-05-31 07:00:00 17.2 8 Noroeste 15 Norte 0 -- -- 66
2019-05-31 06:00:00 17.3 9 Noroeste 15 Noroeste 0 -- -- 66
2019-05-31 05:00:00 17.8 9 Noroeste 18 Noroeste 0 -- -- 64
2019-05-31 04:00:00 18.2 9 Noroeste 16 Oeste 0 -- -- 62
2019-05-31 03:00:00 19 9 Noroeste 21 Noroeste 0 -- -- 59
2019-05-31 02:00:00 19.3 11 Noroeste 21 Noroeste 0 -- -- 57
2019-05-31 01:00:00 18.6 10 Noroeste 19 Noroeste 0 -- -- 57
2019-05-31 00:00:00 18.7 6 Oeste 10 Sudoeste 0 -- -- 53
2019-05-30 23:00:00 20.4 6 Oeste 15 Oeste 0 -- -- 48
2019-05-30 22:00:00 21.2 11 Sudoeste 16 Oeste 0 -- -- 48
2019-05-30 21:00:00 21.9 5 Sudoeste 11 Sudoeste 0 -- -- 46
2019-05-30 20:00:00 22 5 Sur 9 Sudeste 0 -- -- 54
2019-05-30 19:00:00 22.4 5 Sudeste 9 Sudeste 0 -- -- 55
2019-05-30 18:00:00 21.8 3 Este 13 Sudeste 0 -- -- 54
2019-05-30 17:00:00 21 10 Sur 19 Sur 0 -- -- 55
2019-05-30 16:00:00 22.3 10 Sudeste 25 Sudeste 0 -- -- 51
2019-05-30 15:00:00 21 11 Sudeste 23 Sudeste 0 -- -- 54
2019-05-30 14:00:00 21.4 9 Nordeste 22 Sudeste 0 -- -- 51
2019-05-30 13:00:00 21.2 12 Este 24 Este 0 -- -- 52
2019-05-30 12:00:00 20.9 15 Este 23 Este 0 -- -- 48
2019-05-30 11:00:00 22.1 8 Noroeste 22 Oeste 0 -- -- 42
2019-05-30 10:00:00 20.1 13 Noroeste 29 Noroeste 0 -- -- 48
2019-05-30 09:00:00 19 16 Noroeste 30 Noroeste 0 -- -- 51
2019-05-30 08:00:00 18.1 12 Noroeste 24 Noroeste 0 -- -- 53
2019-05-30 07:00:00 16.7 5 Noroeste 15 Oeste 0 -- -- 59
2019-05-30 06:00:00 17.2 10 Oeste 21 Nordeste 0 -- -- 56
2019-05-30 05:00:00 17.4 9 Noroeste 28 Noroeste 0 -- -- 55
2019-05-30 04:00:00 17.9 9 Oeste 25 Noroeste 0 -- -- 53
2019-05-30 03:00:00 18.4 12 Noroeste 34 Noroeste 0 -- -- 48
2019-05-30 02:00:00 18.7 12 Noroeste 38 Noroeste 0 -- -- 44
2019-05-30 01:00:00 18.8 10 Noroeste 30 Noroeste 0 -- -- 43
2019-05-30 00:00:00 18.9 10 Noroeste 31 Noroeste 0 -- -- 45
2019-05-29 23:00:00 19.1 13 Noroeste 33 Noroeste 0 -- -- 42
2019-05-29 22:00:00 19.8 12 Norte 43 Norte 0 -- -- 41
2019-05-29 21:00:00 20.3 19 Noroeste 39 Norte 0 -- -- 39
2019-05-29 20:00:00 21.5 11 Noroeste 37 Norte 0 -- -- 36
2019-05-29 19:00:00 22.4 12 Noroeste 35 Noroeste 0 -- -- 35
2019-05-29 18:00:00 23.2 11 Nordeste 34 Este 0 -- -- 31
2019-05-29 17:00:00 22.7 12 Nordeste 39 Nordeste 0 -- -- 34
2019-05-29 16:00:00 22.3 13 Este 33 Nordeste 0 -- -- 36
2019-05-29 15:00:00 22.5 12 Norte 44 Norte 0 -- -- 34
2019-05-29 14:00:00 22.9 10 Norte 48 Norte 0 -- -- 30
2019-05-29 13:00:00 21.6 17 Noroeste 36 Noroeste 0 -- -- 30
2019-05-29 12:00:00 21.3 10 Norte 39 Noroeste 0 -- -- 34
2019-05-29 11:00:00 20.3 15 Noroeste 40 Noroeste 0 -- -- 37
2019-05-29 10:00:00 19.2 20 Noroeste 48 Noroeste 0 -- -- 40
2019-05-29 09:00:00 17.9 11 Noroeste 40 Noroeste 0 -- -- 42
2019-05-29 08:00:00 16.9 17 Noroeste 38 Noroeste 0 -- -- 44
2019-05-29 07:00:00 15.9 18 Noroeste 42 Noroeste 0 -- -- 45
2019-05-29 06:00:00 15.5 16 Noroeste 39 Norte 0 -- -- 47
2019-05-29 05:00:00 15.4 18 Noroeste 37 Noroeste 0 -- -- 53
2019-05-29 04:00:00 15.5 14 Noroeste 39 Norte 0 -- -- 53
2019-05-29 03:00:00 16.1 21 Noroeste 45 Norte 0 -- -- 51
2019-05-29 02:00:00 16.4 17 Noroeste 41 Noroeste 0 -- -- 50
2019-05-29 01:00:00 16.6 17 Noroeste 46 Noroeste 0 -- -- 49
2019-05-29 00:00:00 17 15 Noroeste 42 Norte 0 -- -- 49
2019-05-28 23:00:00 16.9 15 Noroeste 31 Norte 0 -- -- 52
2019-05-28 22:00:00 17.4 6 Oeste 18 Oeste 0 -- -- 68
2019-05-28 21:00:00 18.5 7 Noroeste 30 Noroeste 0 -- -- 50
2019-05-28 20:00:00 18.9 6 Noroeste 21 Sudoeste 0 -- -- 63
2019-05-28 19:00:00 18.6 6 Oeste 20 Oeste 0 -- -- 62
2019-05-28 18:00:00 20 7 Oeste 19 Oeste 0 -- -- 51
2019-05-28 17:00:00 20.4 5 Noroeste 19 Nordeste 0 -- -- 46
2019-05-28 16:00:00 19.3 8 Norte 28 Este 0 -- -- 54
2019-05-28 15:00:00 19.8 12 Nordeste 33 Nordeste 0 -- -- 56
2019-05-28 14:00:00 22 13 Este 30 Este 0 -- -- 42
2019-05-28 13:00:00 20.3 17 Este 25 Este 0 -- -- 44
2019-05-28 12:00:00 19 13 Este 27 Nordeste 0 -- -- 45
2019-05-28 11:00:00 20.9 9 Nordeste 24 Norte 0 -- -- 39
2019-05-28 10:00:00 19.3 14 Nordeste 24 Nordeste 0 -- -- 43
2019-05-28 09:00:00 18.2 12 Noroeste 28 Noroeste 0 -- -- 49
2019-05-28 08:00:00 16.3 10 Norte 24 Noroeste 0 -- -- 56
2019-05-28 07:00:00 16 11 Noroeste 27 Noroeste 0 -- -- 60
2019-05-28 06:00:00 15.6 9 Noroeste 19 Noroeste 0 -- -- 68
2019-05-28 05:00:00 16 8 Noroeste 17 Noroeste 0 -- -- 75
2019-05-28 04:00:00 15.9 8 Noroeste 14 Noroeste 0 -- -- 80
2019-05-28 03:00:00 15.9 7 Noroeste 10 Noroeste 0 -- -- 81
2019-05-28 02:00:00 17 2 Norte 12 Noroeste 0 -- -- 75
2019-05-28 01:00:00 17.4 3 Noroeste 8 Oeste 0 -- -- 73
2019-05-28 00:00:00 18.4 4 Oeste 15 Oeste 0 -- -- 72
2019-05-27 23:00:00 19.3 5 Oeste 12 Noroeste 0 -- -- 62
2019-05-27 22:00:00 19.9 5 Este 8 Nordeste 0 -- -- 57
2019-05-27 21:00:00 20.1 2 Nordeste 15 Nordeste 0 -- -- 57
2019-05-27 20:00:00 20.2 8 Norte 26 Este 0 -- -- 60
2019-05-27 19:00:00 18.9 5 Este 15 Sudeste 0 -- -- 75
2019-05-27 18:00:00 18.6 14 Sudeste 22 Sur 0 -- -- 73
2019-05-27 17:00:00 18.9 9 Sudeste 24 Sur 0 -- -- 68
2019-05-27 16:00:00 20 14 Sur 27 Este 0 -- -- 64
2019-05-27 15:00:00 22.4 11 Este 32 Norte 0 -- -- 52
2019-05-27 14:00:00 24.3 12 Norte 31 Nordeste 0 -- -- 42
2019-05-27 13:00:00 23.3 14 Nordeste 31 Nordeste 0 -- -- 43
2019-05-27 12:00:00 23.4 12 Noroeste 37 Noroeste 0 -- -- 43
2019-05-27 11:00:00 22 15 Nordeste 35 Noroeste 0 -- -- 47
2019-05-27 10:00:00 20.5 17 Noroeste 41 Noroeste 0 -- -- 50
2019-05-27 09:00:00 19.7 15 Noroeste 40 Norte 0 -- -- 52
2019-05-27 08:00:00 18.9 15 Noroeste 40 Noroeste 0 -- -- 54
2019-05-27 07:00:00 18.3 15 Noroeste 37 Noroeste 0 -- -- 55
2019-05-27 06:00:00 18.3 15 Noroeste 49 Norte 0 -- -- 57
2019-05-27 05:00:00 18.7 15 Noroeste 35 Noroeste 0 -- -- 56
2019-05-27 04:00:00 19 13 Noroeste 37 Noroeste 0 -- -- 55
2019-05-27 03:00:00 19.7 15 Noroeste 40 Noroeste 0 -- -- 51
2019-05-27 02:00:00 20.2 14 Noroeste 36 Norte 0 -- -- 48
2019-05-27 01:00:00 20.5 16 Noroeste 33 Noroeste 0 -- -- 46
2019-05-27 00:00:00 20.6 12 Noroeste 35 Noroeste 0 -- -- 47
2019-05-26 23:00:00 21.1 13 Noroeste 33 Noroeste 0 -- -- 44
2019-05-26 22:00:00 21.3 14 Noroeste 33 Noroeste 0 -- -- 43
2019-05-26 21:00:00 22 17 Noroeste 36 Noroeste 0 -- -- 42
2019-05-26 20:00:00 22.8 12 Noroeste 35 Oeste 0 -- -- 41
2019-05-26 19:00:00 23.7 16 Noroeste 35 Noroeste 0 -- -- 40
2019-05-26 18:00:00 23.8 13 Noroeste 44 Noroeste 0 -- -- 41
2019-05-26 17:00:00 24.3 13 Noroeste 39 Noroeste 0 -- -- 41
2019-05-26 16:00:00 24.3 13 Noroeste 40 Norte 0 -- -- 40
2019-05-26 15:00:00 23.9 14 Norte 45 Noroeste 0 -- -- 40
2019-05-26 14:00:00 23.3 19 Noroeste 46 Noroeste 0 -- -- 41
2019-05-26 13:00:00 22.4 18 Noroeste 49 Oeste 0 -- -- 45
2019-05-26 12:00:00 21.7 16 Noroeste 47 Norte 0 -- -- 46
2019-05-26 11:00:00 20.8 20 Noroeste 41 Norte 0 -- -- 47
2019-05-26 10:00:00 20 22 Noroeste 44 Noroeste 0 -- -- 46
2019-05-26 09:00:00 19.9 19 Noroeste 39 Noroeste 0 -- -- 44
2019-05-26 08:00:00 19 14 Noroeste 36 Oeste 0 -- -- 46
2019-05-26 07:00:00 18.6 14 Noroeste 34 Norte 0 -- -- 48
2019-05-26 06:00:00 18.5 12 Noroeste 29 Noroeste 0 -- -- 52
2019-05-26 05:00:00 18.8 15 Noroeste 37 Noroeste 0 -- -- 53
2019-05-26 04:00:00 18.7 14 Noroeste 36 Norte 0 -- -- 55
2019-05-26 03:00:00 18.9 18 Noroeste 44 Norte 0 -- -- 56
2019-05-26 02:00:00 19.4 15 Noroeste 33 Norte 0 -- -- 54
2019-05-26 01:00:00 20 13 Noroeste 37 Noroeste 0 -- -- 50
2019-05-26 00:00:00 20.6 17 Noroeste 35 Oeste 0 -- -- 47